createdAt,value
2023-03-30T00:00:15.300Z,11.60
2023-03-30T00:02:47.013Z,11.50
2023-03-30T00:05:19.207Z,11.60
2023-03-30T00:07:51.204Z,11.60
2023-03-30T00:10:22.413Z,11.60
2023-03-30T00:12:53.423Z,11.60
2023-03-30T00:15:25.047Z,11.60
2023-03-30T00:17:55.740Z,11.60
2023-03-30T00:20:26.432Z,11.50
2023-03-30T00:22:57.166Z,11.50
2023-03-30T00:25:28.006Z,11.50
2023-03-30T00:27:58.676Z,11.50
2023-03-30T00:30:29.398Z,11.50
2023-03-30T00:33:00.185Z,11.50
2023-03-30T00:35:31.646Z,11.40
2023-03-30T00:38:03.459Z,11.40
2023-03-30T00:40:35.743Z,11.40
2023-03-30T00:43:09.958Z,11.50
2023-03-30T00:45:41.240Z,11.50
2023-03-30T00:48:15.927Z,11.50
2023-03-30T00:50:48.885Z,11.40
2023-03-30T00:53:22.966Z,11.40
2023-03-30T00:55:55.507Z,11.40
2023-03-30T00:58:27.375Z,11.40
2023-03-30T01:00:59.579Z,11.40
2023-03-30T01:03:33.523Z,11.40
2023-03-30T01:06:07.544Z,11.40
2023-03-30T01:08:41.259Z,11.40
2023-03-30T01:11:12.459Z,11.40
2023-03-30T01:13:46.446Z,11.30
2023-03-30T01:16:37.218Z,11.20
2023-03-30T01:19:16.674Z,11.20
2023-03-30T01:22:04.834Z,11.30
2023-03-30T01:25:12.192Z,11.30
2023-03-30T01:31:29.391Z,11.30
2023-03-30T01:34:36.231Z,11.20
2023-03-30T01:37:38.081Z,11.20
2023-03-30T01:40:13.384Z,11.10
2023-03-30T01:42:48.673Z,11.10
2023-03-30T01:45:23.062Z,11.10
2023-03-30T01:47:57.376Z,11.10
2023-03-30T01:50:30.485Z,11.00
2023-03-30T01:53:04.940Z,11.00
2023-03-30T01:55:39.413Z,11.00
2023-03-30T01:58:12.996Z,11.00
2023-03-30T02:00:48.864Z,10.90
2023-03-30T02:03:23.714Z,10.90
2023-03-30T02:05:57.651Z,10.80
2023-03-30T02:08:32.822Z,10.80
2023-03-30T02:11:04.089Z,10.80
2023-03-30T02:13:37.636Z,10.70
2023-03-30T02:16:12.254Z,10.70
2023-03-30T02:18:43.696Z,10.70
2023-03-30T02:21:14.710Z,10.60
2023-03-30T02:23:47.873Z,10.60
2023-03-30T02:26:18.661Z,10.60
2023-03-30T02:28:49.770Z,10.60
2023-03-30T02:31:20.695Z,10.70
2023-03-30T02:34:00.812Z,10.70
2023-03-30T02:36:40.882Z,10.70
2023-03-30T02:39:19.677Z,10.60
2023-03-30T02:42:31.519Z,10.50
2023-03-30T02:45:09.241Z,10.40
2023-03-30T02:47:43.019Z,10.40
2023-03-30T02:50:18.286Z,10.40
2023-03-30T02:52:54.638Z,10.40
2023-03-30T02:55:29.394Z,10.30
2023-03-30T02:58:07.596Z,10.30
2023-03-30T03:00:43.417Z,10.40
2023-03-30T03:03:18.006Z,10.40
2023-03-30T03:05:49.485Z,10.30
2023-03-30T03:08:23.776Z,10.30
2023-03-30T03:10:54.688Z,10.40
2023-03-30T03:13:25.895Z,10.40
2023-03-30T03:15:57.090Z,10.40
2023-03-30T03:18:28.434Z,10.30
2023-03-30T03:21:17.961Z,10.30
2023-03-30T03:23:49.167Z,10.30
2023-03-30T03:26:20.286Z,10.20
2023-03-30T03:28:51.267Z,10.20
2023-03-30T03:31:24.533Z,10.30
2023-03-30T03:33:55.528Z,10.30
2023-03-30T03:36:26.719Z,10.30
2023-03-30T03:38:57.801Z,10.30
2023-03-30T03:41:28.631Z,10.30
2023-03-30T03:43:59.731Z,10.30
2023-03-30T03:46:49.386Z,10.20
2023-03-30T03:49:20.703Z,10.10
2023-03-30T03:51:51.662Z,10.00
2023-03-30T03:54:22.632Z,10.10
2023-03-30T03:57:12.157Z,10.10
2023-03-30T03:59:43.164Z,10.10
2023-03-30T04:02:14.167Z,10.10
2023-03-30T04:04:45.479Z,10.10
2023-03-30T04:07:16.478Z,10.10
2023-03-30T04:09:47.366Z,10.10
2023-03-30T04:12:20.395Z,10.10
2023-03-30T04:17:28.542Z,10.00
2023-03-30T04:19:59.774Z,10.00
2023-03-30T04:22:32.093Z,10.00
2023-03-30T04:25:04.754Z,10.10
2023-03-30T04:27:37.329Z,10.00
2023-03-30T04:30:10.186Z,10.00
2023-03-30T04:32:41.582Z,10.10
2023-03-30T04:35:14.442Z,10.10
2023-03-30T04:37:46.201Z,10.10
2023-03-30T04:40:17.280Z,10.00
2023-03-30T04:42:50.080Z,9.90
2023-03-30T04:45:21.803Z,9.90
2023-03-30T04:47:52.869Z,9.90
2023-03-30T04:50:23.899Z,9.90
2023-03-30T04:52:54.833Z,10.00
2023-03-30T04:55:27.085Z,10.00
2023-03-30T04:57:58.407Z,10.00
2023-03-30T05:00:29.655Z,10.00
2023-03-30T05:03:00.986Z,10.00
2023-03-30T05:05:50.467Z,10.10
2023-03-30T05:08:21.602Z,10.00
2023-03-30T05:10:52.704Z,10.00
2023-03-30T05:13:23.750Z,10.10
2023-03-30T05:15:56.586Z,10.10
2023-03-30T05:21:06.777Z,10.10
2023-03-30T05:23:39.814Z,10.20
2023-03-30T05:26:29.193Z,10.10
2023-03-30T05:29:00.594Z,10.10
2023-03-30T05:31:31.843Z,10.10
2023-03-30T05:34:03.070Z,10.20
2023-03-30T05:36:35.476Z,10.20
2023-03-30T05:39:07.806Z,10.20
2023-03-30T05:41:38.949Z,10.30
2023-03-30T05:44:10.265Z,10.30
2023-03-30T05:46:41.365Z,10.30
2023-03-30T05:51:51.186Z,10.30
2023-03-30T05:54:22.294Z,10.40
2023-03-30T05:56:53.385Z,10.40
2023-03-30T05:59:24.693Z,10.40
2023-03-30T06:01:56.232Z,10.50
2023-03-30T06:04:27.956Z,10.50
2023-03-30T06:06:59.166Z,10.50
2023-03-30T06:09:30.309Z,10.60
2023-03-30T06:12:01.586Z,10.50
2023-03-30T06:14:33.127Z,10.60
2023-03-30T06:17:04.147Z,10.60
2023-03-30T06:19:35.231Z,10.60
2023-03-30T06:22:06.341Z,10.50
2023-03-30T06:24:37.423Z,10.50
2023-03-30T06:27:08.710Z,10.50
2023-03-30T06:29:39.945Z,10.60
2023-03-30T06:32:11.303Z,10.70
2023-03-30T06:34:42.445Z,10.70
2023-03-30T06:37:13.371Z,10.60
2023-03-30T06:39:46.200Z,10.70
2023-03-30T06:42:18.405Z,10.70
2023-03-30T06:44:50.001Z,10.80
2023-03-30T06:47:22.576Z,10.90
2023-03-30T06:49:53.903Z,10.90
2023-03-30T06:52:24.946Z,11.10
2023-03-30T06:54:56.026Z,11.10
2023-03-30T06:57:27.157Z,11.20
2023-03-30T06:59:58.326Z,11.30
2023-03-30T07:02:30.314Z,11.40
2023-03-30T07:05:01.422Z,11.50
2023-03-30T07:07:32.545Z,11.70
2023-03-30T07:10:06.149Z,11.70
2023-03-30T07:12:37.472Z,11.80
2023-03-30T07:15:10.908Z,11.80
2023-03-30T07:17:42.181Z,11.80
2023-03-30T07:20:16.266Z,11.80
2023-03-30T07:22:47.324Z,11.80
2023-03-30T07:25:19.180Z,11.80
2023-03-30T07:27:50.189Z,11.80
2023-03-30T07:30:22.851Z,11.80
2023-03-30T07:32:56.179Z,11.90
2023-03-30T07:35:27.258Z,11.90
2023-03-30T07:38:03.185Z,12.00
2023-03-30T07:40:31.263Z,12.10
2023-03-30T07:43:02.618Z,12.10
2023-03-30T07:45:33.831Z,12.20
2023-03-30T07:48:04.908Z,12.40
2023-03-30T07:50:35.941Z,12.60
2023-03-30T07:53:06.720Z,12.70
2023-03-30T07:55:37.776Z,12.70
2023-03-30T07:58:08.877Z,12.90
2023-03-30T08:00:40.762Z,13.40
2023-03-30T08:03:12.564Z,13.40
2023-03-30T08:05:43.953Z,13.40
2023-03-30T08:08:15.052Z,13.40
2023-03-30T08:10:47.110Z,13.20
2023-03-30T08:13:20.586Z,13.30
2023-03-30T08:15:52.868Z,13.40
2023-03-30T08:18:24.094Z,13.70
2023-03-30T08:20:56.854Z,13.90
2023-03-30T08:23:28.192Z,13.80
2023-03-30T08:26:00.852Z,13.70
2023-03-30T08:28:34.610Z,13.60
2023-03-30T08:31:10.991Z,13.70
2023-03-30T08:33:42.223Z,13.90
2023-03-30T08:36:13.947Z,14.20
2023-03-30T08:38:46.420Z,14.40
2023-03-30T08:41:37.057Z,14.30
2023-03-30T08:46:49.017Z,14.10
2023-03-30T08:49:22.262Z,13.90
2023-03-30T08:51:55.955Z,14.10
2023-03-30T08:54:28.476Z,14.00
2023-03-30T08:57:05.204Z,14.00
2023-03-30T08:59:40.789Z,14.20
2023-03-30T09:02:18.379Z,14.20
2023-03-30T09:04:59.205Z,14.50
2023-03-30T09:07:33.244Z,14.60
2023-03-30T09:10:04.785Z,14.70
2023-03-30T09:12:40.422Z,14.90
2023-03-30T09:15:15.254Z,14.60
2023-03-30T09:17:49.688Z,14.80
2023-03-30T09:20:24.411Z,15.20
2023-03-30T09:22:57.059Z,15.60
2023-03-30T09:25:31.248Z,15.50
2023-03-30T09:28:07.072Z,15.60
2023-03-30T09:30:41.288Z,15.20
2023-03-30T09:33:18.804Z,15.00
2023-03-30T09:35:54.697Z,15.40
2023-03-30T09:38:25.744Z,15.50
2023-03-30T09:41:09.854Z,15.40
2023-03-30T09:43:44.392Z,15.50
2023-03-30T09:46:16.627Z,15.40
2023-03-30T09:48:49.133Z,15.20
2023-03-30T09:51:23.574Z,14.80
2023-03-30T09:53:57.336Z,14.80
2023-03-30T09:56:47.936Z,15.10
2023-03-30T09:59:32.015Z,15.20
2023-03-30T10:02:19.253Z,15.20
2023-03-30T10:05:02.486Z,15.30
2023-03-30T10:07:38.049Z,15.80
2023-03-30T10:10:24.740Z,15.70
2023-03-30T10:12:58.801Z,16.10
2023-03-30T10:15:31.843Z,16.00
2023-03-30T10:18:07.016Z,16.00
2023-03-30T10:20:39.798Z,16.30
2023-03-30T10:23:17.607Z,16.20
2023-03-30T10:25:52.283Z,16.30
2023-03-30T10:31:06.393Z,16.80
2023-03-30T10:33:43.920Z,16.80
2023-03-30T10:36:17.411Z,16.60
2023-03-30T10:38:48.882Z,16.20
2023-03-30T10:41:23.057Z,16.20
2023-03-30T10:43:54.442Z,16.20
2023-03-30T10:46:27.400Z,16.20
2023-03-30T10:49:05.660Z,16.30
2023-03-30T10:51:43.254Z,16.40
2023-03-30T10:54:18.009Z,16.50
2023-03-30T10:56:51.722Z,16.60
2023-03-30T10:59:37.957Z,16.70
2023-03-30T11:02:22.582Z,16.70
2023-03-30T11:07:37.567Z,17.10
2023-03-30T11:10:13.144Z,17.40
2023-03-30T11:12:46.837Z,17.10
2023-03-30T11:15:21.410Z,17.20
2023-03-30T11:17:57.541Z,17.00
2023-03-30T11:20:31.485Z,16.90
2023-03-30T11:23:07.596Z,17.00
2023-03-30T11:25:41.628Z,16.80
2023-03-30T11:28:17.766Z,17.00
2023-03-30T11:30:50.566Z,17.00
2023-03-30T11:33:25.982Z,16.90
2023-03-30T11:36:00.254Z,16.80
2023-03-30T11:38:36.255Z,16.90
2023-03-30T11:41:11.851Z,17.10
2023-03-30T11:43:43.036Z,17.10
2023-03-30T11:46:16.829Z,17.30
2023-03-30T11:49:11.463Z,17.20
2023-03-30T11:51:51.178Z,17.60
2023-03-30T11:55:04.183Z,17.90
2023-03-30T11:57:42.620Z,18.60
2023-03-30T12:00:34.781Z,18.60
2023-03-30T12:03:20.209Z,18.60
2023-03-30T12:05:53.952Z,18.10
2023-03-30T12:08:33.818Z,18.00
2023-03-30T12:13:51.194Z,19.00
2023-03-30T12:16:21.239Z,19.30
2023-03-30T12:18:58.941Z,19.50
2023-03-30T12:21:34.271Z,19.90
2023-03-30T12:24:09.518Z,20.00
2023-03-30T12:26:42.555Z,20.30
2023-03-30T12:31:55.985Z,20.60
2023-03-30T12:34:28.274Z,20.40
2023-03-30T12:37:04.883Z,20.00
2023-03-30T12:39:40.736Z,19.60
2023-03-30T12:44:55.473Z,20.10
2023-03-30T12:47:35.398Z,20.10
2023-03-30T12:50:22.205Z,19.80
2023-03-30T12:52:58.180Z,20.10
2023-03-30T12:55:38.599Z,20.10
2023-03-30T12:58:28.664Z,20.70
2023-03-30T13:01:23.432Z,20.70
2023-03-30T13:03:55.479Z,20.90
2023-03-30T13:06:29.891Z,21.10
2023-03-30T13:11:50.194Z,21.50
2023-03-30T13:14:28.996Z,22.20
2023-03-30T13:17:19.895Z,22.60
2023-03-30T13:20:15.433Z,22.60
2023-03-30T13:22:39.107Z,22.70
2023-03-30T13:25:30.520Z,22.50
2023-03-30T13:28:01.930Z,22.70
2023-03-30T13:33:17.044Z,22.20
2023-03-30T13:36:03.801Z,21.60
2023-03-30T13:38:43.087Z,21.80
2023-03-30T13:41:24.336Z,22.30
2023-03-30T13:44:05.729Z,22.00
2023-03-30T13:49:24.136Z,21.80
2023-03-30T13:51:57.281Z,21.00
2023-03-30T13:54:30.928Z,20.60
2023-03-30T13:57:05.408Z,20.50
2023-03-30T13:59:39.526Z,19.90
2023-03-30T14:02:14.873Z,20.20
2023-03-30T14:04:45.763Z,20.00
2023-03-30T14:07:19.029Z,19.80
2023-03-30T14:10:07.520Z,20.20
2023-03-30T14:12:40.910Z,20.40
2023-03-30T14:15:22.098Z,21.00
2023-03-30T14:17:55.914Z,21.10
2023-03-30T14:20:47.816Z,21.10
2023-03-30T14:23:22.157Z,21.30
2023-03-30T14:25:55.616Z,21.20
2023-03-30T14:28:27.955Z,20.70
2023-03-30T14:31:02.410Z,20.70
2023-03-30T14:33:33.840Z,20.70
2023-03-30T14:36:05.553Z,20.60
2023-03-30T14:38:40.046Z,20.60
2023-03-30T14:41:12.318Z,21.10
2023-03-30T14:43:45.031Z,21.50
2023-03-30T14:46:16.543Z,21.50
2023-03-30T14:51:30.539Z,21.80
2023-03-30T14:54:01.351Z,21.90
2023-03-30T14:56:33.055Z,21.80
2023-03-30T14:59:04.812Z,22.40
2023-03-30T15:01:36.338Z,22.90
2023-03-30T15:04:09.403Z,23.10
2023-03-30T15:06:41.390Z,22.90
2023-03-30T15:09:17.016Z,21.90
2023-03-30T15:11:50.584Z,21.70
2023-03-30T15:14:23.946Z,21.40
2023-03-30T15:16:57.993Z,21.40
2023-03-30T15:19:32.050Z,21.40
2023-03-30T15:22:04.817Z,21.80
2023-03-30T15:24:38.355Z,21.70
2023-03-30T15:27:11.892Z,21.90
2023-03-30T15:29:45.054Z,22.10
2023-03-30T15:32:19.530Z,22.50
2023-03-30T15:35:08.516Z,21.50
2023-03-30T15:37:39.720Z,21.20
2023-03-30T15:40:30.647Z,20.80
2023-03-30T15:43:20.330Z,20.40
2023-03-30T15:45:54.314Z,20.10
2023-03-30T15:48:29.073Z,19.90
2023-03-30T15:53:46.566Z,19.70
2023-03-30T15:56:21.996Z,19.60
2023-03-30T15:58:53.530Z,19.40
2023-03-30T16:01:24.191Z,19.40
2023-03-30T16:03:58.425Z,19.60
2023-03-30T16:06:29.272Z,19.70
2023-03-30T16:09:00.010Z,19.50
2023-03-30T16:11:32.262Z,19.50
2023-03-30T16:14:05.023Z,19.40
2023-03-30T16:16:36.068Z,19.20
2023-03-30T16:19:09.456Z,19.10
2023-03-30T16:21:40.042Z,19.00
2023-03-30T16:24:11.086Z,18.80
2023-03-30T16:26:41.741Z,18.70
2023-03-30T16:29:18.555Z,18.50
2023-03-30T16:31:49.436Z,18.40
2023-03-30T16:36:58.838Z,18.20
2023-03-30T16:39:30.861Z,18.00
2023-03-30T16:42:01.852Z,17.70
2023-03-30T16:44:32.551Z,17.80
2023-03-30T16:47:03.139Z,17.90
2023-03-30T16:49:33.765Z,17.70
2023-03-30T16:52:06.371Z,17.70
2023-03-30T16:54:36.946Z,17.60
2023-03-30T16:57:09.916Z,17.60
2023-03-30T16:59:39.819Z,17.40
2023-03-30T17:02:17.477Z,17.20
2023-03-30T17:04:46.354Z,17.30
2023-03-30T17:07:17.762Z,17.20
2023-03-30T17:09:48.589Z,17.10
2023-03-30T17:12:19.470Z,17.10
2023-03-30T17:14:50.315Z,16.90
2023-03-30T17:17:21.798Z,16.90
2023-03-30T17:19:52.573Z,17.00
2023-03-30T17:22:23.349Z,17.00
2023-03-30T17:24:54.331Z,16.90
2023-03-30T17:27:26.113Z,16.90
2023-03-30T17:29:56.904Z,16.50
2023-03-30T17:32:28.298Z,16.30
2023-03-30T17:34:59.004Z,16.20
2023-03-30T17:37:29.663Z,16.10
2023-03-30T17:40:00.414Z,15.80
2023-03-30T17:42:31.013Z,15.80
2023-03-30T17:45:01.808Z,15.70
2023-03-30T17:47:32.423Z,15.70
2023-03-30T17:50:04.195Z,15.50
2023-03-30T17:52:34.818Z,15.40
2023-03-30T17:55:05.845Z,15.40
2023-03-30T17:57:36.596Z,15.30
2023-03-30T18:00:15.223Z,15.30
2023-03-30T18:02:46.130Z,15.30
2023-03-30T18:05:17.446Z,15.20
2023-03-30T18:07:48.443Z,15.00
2023-03-30T18:10:25.720Z,14.90
2023-03-30T18:12:57.963Z,15.00
2023-03-30T18:15:29.664Z,14.90
2023-03-30T18:18:01.874Z,14.70
2023-03-30T18:20:35.761Z,14.60
2023-03-30T18:23:06.583Z,14.60
2023-03-30T18:25:37.284Z,14.70
2023-03-30T18:28:12.369Z,14.60
2023-03-30T18:30:43.072Z,14.60
2023-03-30T18:33:15.446Z,14.50
2023-03-30T18:35:48.236Z,14.30
2023-03-30T18:38:21.678Z,14.20
2023-03-30T18:40:53.712Z,14.10
2023-03-30T18:43:24.513Z,14.10
2023-03-30T18:45:58.831Z,14.00
2023-03-30T18:48:29.123Z,14.00
2023-03-30T18:51:00.510Z,13.90
2023-03-30T18:53:32.418Z,13.90
2023-03-30T18:56:03.839Z,13.80
2023-03-30T18:58:37.464Z,13.70
2023-03-30T19:01:08.821Z,13.70
2023-03-30T19:03:40.900Z,13.80
2023-03-30T19:06:16.899Z,13.60
2023-03-30T19:08:48.145Z,13.80
2023-03-30T19:11:22.371Z,13.80
2023-03-30T19:13:53.542Z,13.80
2023-03-30T19:16:24.316Z,13.80
2023-03-30T19:18:55.031Z,13.80
2023-03-30T19:21:26.401Z,13.70
2023-03-30T19:23:57.311Z,13.70
2023-03-30T19:26:28.796Z,13.70
2023-03-30T19:28:59.540Z,13.70
2023-03-30T19:31:30.601Z,13.70
2023-03-30T19:34:02.635Z,13.70
2023-03-30T19:36:33.422Z,13.70
2023-03-30T19:39:04.289Z,13.70
2023-03-30T19:41:36.249Z,13.70
2023-03-30T19:44:07.439Z,13.70
2023-03-30T19:46:39.050Z,13.70
2023-03-30T19:49:09.808Z,13.80
2023-03-30T19:54:24.832Z,13.70
2023-03-30T19:56:55.436Z,13.60
2023-03-30T19:59:27.855Z,13.80
2023-03-30T20:01:58.714Z,13.80
2023-03-30T20:04:29.411Z,13.70
2023-03-30T20:07:02.302Z,13.70
2023-03-30T20:09:33.255Z,13.70
2023-03-30T20:12:05.156Z,13.80
2023-03-30T20:14:36.223Z,13.90
2023-03-30T20:17:08.446Z,13.80
2023-03-30T20:19:41.044Z,13.70
2023-03-30T20:22:12.759Z,13.50
2023-03-30T20:24:44.799Z,13.60
2023-03-30T20:27:15.665Z,13.60
2023-03-30T20:29:46.465Z,13.60
2023-03-30T20:32:17.546Z,13.60
2023-03-30T20:34:49.556Z,13.50
2023-03-30T20:37:20.317Z,13.50
2023-03-30T20:39:50.931Z,13.50
2023-03-30T20:42:23.965Z,13.50
2023-03-30T20:44:55.895Z,13.40
2023-03-30T20:47:28.463Z,13.30
2023-03-30T20:49:59.453Z,13.40
2023-03-30T20:52:30.736Z,13.40
2023-03-30T20:55:01.454Z,13.20
2023-03-30T20:57:32.173Z,13.20
2023-03-30T21:00:04.426Z,13.10
2023-03-30T21:02:35.270Z,13.10
2023-03-30T21:05:06.775Z,13.10
2023-03-30T21:07:38.402Z,13.20
2023-03-30T21:10:11.421Z,13.20
2023-03-30T21:12:42.009Z,13.20
2023-03-30T21:15:15.295Z,13.10
2023-03-30T21:17:46.041Z,13.10
2023-03-30T21:20:17.246Z,13.10
2023-03-30T21:22:47.807Z,13.00
2023-03-30T21:25:18.912Z,12.90
2023-03-30T21:27:49.510Z,13.10
2023-03-30T21:30:20.502Z,13.00
2023-03-30T21:32:51.150Z,12.90
2023-03-30T21:35:21.810Z,12.90
2023-03-30T21:37:52.385Z,12.80
2023-03-30T21:40:23.250Z,12.70
2023-03-30T21:42:53.909Z,12.80
2023-03-30T21:45:24.919Z,12.70
2023-03-30T21:47:55.646Z,12.50
2023-03-30T21:50:26.471Z,12.60
2023-03-30T21:53:00.458Z,12.60
2023-03-30T21:55:31.079Z,12.70
2023-03-30T21:58:01.801Z,12.60
2023-03-30T22:00:32.605Z,12.50
2023-03-30T22:03:03.356Z,12.40
2023-03-30T22:05:33.964Z,12.40
2023-03-30T22:08:04.638Z,12.40
2023-03-30T22:10:35.688Z,12.60
2023-03-30T22:13:06.735Z,12.60
2023-03-30T22:15:37.442Z,12.50
2023-03-30T22:18:08.263Z,12.40
2023-03-30T22:20:41.494Z,12.30
2023-03-30T22:23:12.282Z,12.20
2023-03-30T22:25:42.846Z,12.20
2023-03-30T22:28:13.506Z,12.20
2023-03-30T22:30:45.409Z,12.10
2023-03-30T22:33:17.578Z,12.10
2023-03-30T22:35:49.511Z,12.00
2023-03-30T22:38:20.281Z,12.00
2023-03-30T22:40:51.976Z,12.00
2023-03-30T22:43:22.593Z,11.90
2023-03-30T22:45:53.269Z,11.80
2023-03-30T22:48:23.993Z,11.80
2023-03-30T22:50:54.570Z,11.80
2023-03-30T22:53:25.384Z,11.80
2023-03-30T22:55:56.033Z,11.80
2023-03-30T22:58:26.865Z,11.90
2023-03-30T23:01:02.781Z,11.90
2023-03-30T23:03:33.770Z,12.00
2023-03-30T23:06:04.785Z,12.10
2023-03-30T23:08:35.740Z,12.00
2023-03-30T23:11:06.573Z,12.10
2023-03-30T23:13:37.804Z,12.00
2023-03-30T23:16:10.900Z,12.10
2023-03-30T23:18:42.878Z,12.00
2023-03-30T23:21:14.235Z,12.00
2023-03-30T23:23:50.989Z,11.90
2023-03-30T23:26:21.600Z,12.00
2023-03-30T23:28:52.240Z,11.90
2023-03-30T23:31:23.520Z,11.90
2023-03-30T23:33:54.768Z,11.90
2023-03-30T23:36:27.279Z,11.80
2023-03-30T23:38:58.282Z,11.80
2023-03-30T23:41:29.149Z,11.80
2023-03-30T23:43:59.937Z,11.80
2023-03-30T23:46:30.922Z,11.80
2023-03-30T23:49:03.491Z,11.90
2023-03-30T23:51:34.704Z,12.20
2023-03-30T23:54:07.179Z,12.20
2023-03-30T23:56:41.082Z,12.10
2023-03-30T23:59:12.477Z,12.20
